Logo AVAMET
Benvolgut visitant, si us plau, ingressa Recuperar contrasenya

les Useres

Dades diàries. Acumulats / Últims 30 dies disponibles

Data Temperatura (°C) Humitat rel. (%) Pressió rel. (hPa) Vent (km/h) Precipitació
Mínima Mitjana Màxima Amplitud
tèrmica
Mínima Mitjana Màxima Mínima Mitjana Màxima Predom. Mitjana Ràfega
màxima
Total
(mm)
Índex-n
Mínima Mitjana Màxima Mínima Mitjana Màxima n
0 a 1
P0 max
mm 5'
Dades mensuals acumulades fins l'últim dia disponible
07/2019 19,6 20,8 22,9 25,2 25,5 30,4 34,9 15,3 27 58 88 1.008 1.012 1.016   6,5 51,5 10,8
Dades anuals acumulades fins l'últim dia disponible
2019 1,8 11,3 23,7 15,5 9,1 20,4 38,4 36,6 7 56 97 987 1.016 1.034   7,7 122,3 158,0
Últims 30 dies disponibles
19-07-2019 20,5     25,1     30,3 9,8 38 60 80 1.013 1.014 1.015 SE 6,9 38,6 0,0
18-07-2019 20,4     24,7     29,7 9,3 48 62 71 1.012 1.013 1.014 SE 7,2 38,6 0,0
17-07-2019 20,3     24,3     29,2 8,9 46 60 66 1.011 1.012 1.014 SE 7,4 45,1 0,0
16-07-2019 19,9     23,8     28,2 8,3 49 64 82 1.013 1.014 1.015 SE 9,3 48,3 0,0
15-07-2019 20,4     22,3     25,5 5,1 44 68 81 1.009 1.010 1.011 O 2,8 19,3 0,0
14-07-2019 19,8     23,6     28,8 9,0 44 69 82 1.008 1.009 1.011 SE 5,6 33,8 0,8 0,42 0,40
12-07-2019 22,5     25,8     32,9 10,4 36 52 62 1.012 1.013 1.014 S 2,6 22,5 0,0
11-07-2019 21,7     26,4     32,2 10,5 40 59 76 1.011 1.012 1.014 SE 7,4 33,8 0,0
10-07-2019 19,6     24,1     28,7 9,1 52 63 76 1.012 1.013 1.014 SE 8,5 37,0 0,0
09-07-2019 20,0     24,2     29,1 9,1 39 60 80 1.009 1.010 1.013 SE 6,6 40,2 0,0
08-07-2019 20,6     23,4     26,3 5,7 59 71 85 1.009 1.011 1.015 NW 7,2 51,5 9,8
07-07-2019 22,9     27,7     34,9 12,0 27 51 73 1.009 1.010 1.011 S 4,6 32,2 0,0
06-07-2019 21,0     26,7     34,0 13,0 37 66 88 1.009 1.011 1.014 SE 6,3 37,0 0,2
05-07-2019 20,4     25,9     31,3 10,9 45 58 85 1.012 1.014 1.016 SE 6,9 33,8 0,0
04-07-2019 21,1     26,8     32,2 11,1 29 45 62 1.013 1.014 1.015 SE 6,0 38,6 0,0
03-07-2019 21,6     26,4     31,4 9,8 36 46 56 1.012 1.013 1.013 SE 6,9 40,2 0,0
02-07-2019 21,1     26,0     31,2 10,1 34 44 55 1.012 1.014 1.015 SE 7,7 37,0 0,0
01-07-2019 21,4     26,9     32,1 10,7 30 42 54 1.013 1.014 1.015 E 6,4 30,6 0,0
30-06-2019 22,9     29,1     34,9 12,0 26 34 51 1.013 1.014 1.016 SE 6,1 30,6 0,0
29-06-2019 23,7     31,0     38,4 14,7 7 26 42 1.012 1.012 1.014 SE 7,6 32,2 0,0
28-06-2019 23,4     29,9     36,3 12,9 21 38 52 1.013 1.014 1.017 SE 5,6 33,8 0,0
27-06-2019 21,1     28,2     35,2 14,1 28 42 59 1.016 1.018 1.019 SE 6,1 33,8 0,0
26-06-2019 18,7     24,6     29,3 10,6 50 64 86 1.016 1.017 1.019 NNW 11,1 40,2 0,0
25-06-2019 17,5     22,6     29,0 11,5 53 72 88 1.013 1.014 1.017 ESE 6,8 38,6 0,0
24-06-2019 17,9     23,1     28,1 10,2 38 56 77 1.011 1.013 1.014 ESE 7,2 46,7 0,0
23-06-2019 17,7     23,2     29,1 11,4 39 61 83 1.012 1.013 1.014 SE 7,2 38,6 0,0
22-06-2019 17,3     21,2     25,7 8,4 53 71 86 1.013 1.015 1.016 SE 7,9 40,2 0,0
21-06-2019 17,2     20,8     25,4 8,2 53 72 87 1.012 1.013 1.015 E 6,6 38,6 0,0
20-06-2019 16,6     21,2     25,2 8,6 52 68 89 1.009 1.011 1.012 ESE 7,2 40,2 0,0
19-06-2019 15,7     23,1     29,6 13,9 28 49 80 1.009 1.011 1.012 SE 6,3 33,8 0,0
Últims 13 mesos disponibles
06/2019 10,3 16,8 23,7 21,7 18,7 26,9 38,4 28,1 26 54 72 1.006 1.013 1.020 SE 7,4 61,2 0,2
05/2019 8,5 12,2 17,1 16,8 15,9 21,9 28,2 19,7 41 61 85 1.003 1.013 1.022 SE 7,5 77,2 31,4
04/2019 5,8 9,7 12,3 13,3 12,8 17,8 25,7 19,9 39 62 88 997 1.011 1.023 SE 9,5 62,8 95,8
03/2019 5,1 9,2 14,7 13,7 10,2 18,8 25,7 20,6 35 50 82 1.008 1.021 1.028 SE 7,4 62,8 19,6
02/2019 3,4 7,2 13,7 11,4 9,1 16,6 24,6 21,2 33 57 79 990 1.023 1.032 SE 7,2 122,3 0,0
01/2019 1,8 6,6 10,7 10,2 9,7 14,4 19,8 18,0 22 52 77 998 1.017 1.029 SE 7,8 99,8 0,2
12/2018 5,2 9,1 12,7 12,6 11,7 16,7 22,4 17,2 31 64 85 1.006 1.023 1.029 SE 4,1 80,5 9,2
11/2018 5,9 9,7 14,1 12,7 11,8 16,3 20,8 14,9 45 71 94 1.000 1.013 1.022 NNW 5,7 91,7 133,8
10/2018 6,7 13,4 17,6 16,9 11,2 21,1 26,8 20,1 36 68 94 997 1.013 1.024 SE 6,6 82,1 240,4
09/2018 15,2 18,5 22,3 22,2 21,6 27,0 31,1 15,9 50 73 87 1.010 1.018 1.028 SE 5,5 62,8 85,4
08/2018 18,4 21,5 26,3 26,1 22,7 31,1 35,1 16,7 SE 7,4 78,9 15,0
07/2018 15,1 20,4 23,7 25,2 24,8 30,7 33,2 18,1 SE 7,2 51,5 40,0
06/2018 13,8 17,5 20,9 22,0 20,8 27,1 32,1 18,3 SE 7,0 46,7 24,8
Tots els anys disponibles
Temperatura (°C)
Humitat relativa (%)
Velocitat del vent i ràfega màxima (km/h)
Direcció del vent (°)
Pressió (hPa)
Precipitació (mm)
Nota sobre les dades: s'avisa a l'usuari de la provisionalitat i no oficialitat d'aquestes dades
Logo AVAMET blanc
Web allotjada a Sollutia
Llicència de Creative CommonsLa web d'AVAMET i els seus continguts estan subjectes a una llicència de
Reconeixement - No Comercial - Compartir igual
Properes estacions: Altea - Club Nàutic d'Altea (Soci), Ares del Maestrat (Ajuntament Soci),      - - - - -      Últimes estacions: Catadau - Urb. Lloma Molina (Inforatge), Ontinyent - El Pilar (Soci), Asp - Poliesportiu (Soci) - - -